createdAt,value
2023-05-16T00:04:23.814Z,94.51
2023-05-16T00:09:25.722Z,94.91
2023-05-16T00:14:28.393Z,95.25
2023-05-16T00:19:30.206Z,95.48
2023-05-16T00:24:34.229Z,94.88
2023-05-16T00:29:35.961Z,94.26
2023-05-16T00:34:37.695Z,94.65
2023-05-16T00:39:39.525Z,95.11
2023-05-16T00:44:41.514Z,94.67
2023-05-16T00:49:43.812Z,94.29
2023-05-16T00:54:45.658Z,94.46
2023-05-16T00:59:48.512Z,94.79
2023-05-16T01:04:51.873Z,93.96
2023-05-16T01:09:53.862Z,94.19
2023-05-16T01:15:32.354Z,95.15
2023-05-16T01:20:57.034Z,95.32
2023-05-16T01:26:25.068Z,95.10
2023-05-16T01:31:26.787Z,95.74
2023-05-16T01:37:00.414Z,95.75
2023-05-16T01:42:09.122Z,95.44
2023-05-16T01:47:16.741Z,95.23
2023-05-16T01:52:56.715Z,95.85
2023-05-16T01:58:01.377Z,95.30
2023-05-16T02:03:03.128Z,95.31
2023-05-16T02:08:05.662Z,94.78
2023-05-16T02:13:07.704Z,95.43
2023-05-16T02:18:10.033Z,96.23
2023-05-16T02:23:11.718Z,95.93
2023-05-16T02:28:13.580Z,96.22
2023-05-16T02:33:15.576Z,96.31
2023-05-16T02:38:17.603Z,96.34
2023-05-16T02:43:19.258Z,96.21
2023-05-16T02:48:21.020Z,96.62
2023-05-16T02:53:22.723Z,97.02
2023-05-16T02:58:24.357Z,96.94
2023-05-16T03:03:26.637Z,97.02
2023-05-16T03:08:28.419Z,97.88
2023-05-16T03:13:31.805Z,97.02
2023-05-16T03:18:33.853Z,97.77
2023-05-16T03:23:35.543Z,98.25
2023-05-16T03:28:39.015Z,98.57
2023-05-16T03:33:40.687Z,98.31
2023-05-16T03:38:42.626Z,98.31
2023-05-16T03:43:44.294Z,96.16
2023-05-16T03:48:46.410Z,94.95
2023-05-16T03:53:48.060Z,93.79
2023-05-16T03:58:49.735Z,91.72
2023-05-16T04:07:13.255Z,86.93
2023-05-16T04:12:14.994Z,84.19
2023-05-16T04:17:16.825Z,81.09
2023-05-16T04:22:21.269Z,78.22
2023-05-16T04:27:23.525Z,77.28
2023-05-16T04:32:25.410Z,75.49
2023-05-16T04:37:27.692Z,74.06
2023-05-16T04:42:29.410Z,72.85
2023-05-16T04:47:32.590Z,70.88
2023-05-16T04:52:34.828Z,70.16
2023-05-16T04:57:36.561Z,70.24
2023-05-16T05:02:38.642Z,70.77
2023-05-16T05:07:40.954Z,70.64
2023-05-16T05:12:42.717Z,70.70
2023-05-16T05:17:44.478Z,69.73
2023-05-16T05:22:46.845Z,68.65
2023-05-16T05:27:48.626Z,68.45
2023-05-16T05:32:50.381Z,68.38
2023-05-16T05:37:52.335Z,68.78
2023-05-16T05:42:53.987Z,68.24
2023-05-16T05:47:55.802Z,66.91
2023-05-16T05:52:57.592Z,65.85
2023-05-16T05:57:59.493Z,63.69
2023-05-16T06:03:01.312Z,63.99
2023-05-16T06:08:02.967Z,62.83
2023-05-16T06:13:04.627Z,62.03
2023-05-16T06:18:06.360Z,63.03
2023-05-16T06:23:08.153Z,60.07
2023-05-16T06:28:09.860Z,59.05
2023-05-16T06:33:11.511Z,59.45
2023-05-16T06:38:13.309Z,60.64
2023-05-16T06:43:15.132Z,58.11
2023-05-16T06:48:18.703Z,58.40
2023-05-16T06:53:20.732Z,57.04
2023-05-16T06:58:22.474Z,56.78
2023-05-16T07:03:24.196Z,58.05
2023-05-16T07:08:26.256Z,55.56
2023-05-16T07:13:28.164Z,53.99
2023-05-16T07:18:29.956Z,54.74
2023-05-16T07:23:32.072Z,54.63
2023-05-16T07:28:34.522Z,54.50
2023-05-16T07:33:36.239Z,53.61
2023-05-16T07:38:38.107Z,51.44
2023-05-16T07:43:39.873Z,50.31
2023-05-16T07:48:41.566Z,50.27
2023-05-16T07:53:43.413Z,48.29
2023-05-16T07:58:45.580Z,47.06
2023-05-16T08:03:47.492Z,47.58
2023-05-16T08:08:49.232Z,44.86
2023-05-16T08:13:51.153Z,44.83
2023-05-16T08:18:53.478Z,44.43
2023-05-16T08:23:55.855Z,43.38
2023-05-16T08:28:57.527Z,42.58
2023-05-16T08:33:59.288Z,40.96
2023-05-16T08:39:01.018Z,40.66
2023-05-16T08:44:03.014Z,40.06
2023-05-16T08:49:07.873Z,39.91
2023-05-16T08:54:13.624Z,40.16
2023-05-16T08:59:16.326Z,40.20
2023-05-16T09:04:18.642Z,39.90
2023-05-16T09:09:20.434Z,39.61
2023-05-16T09:14:22.213Z,38.04
2023-05-16T09:19:23.935Z,37.59
2023-05-16T09:24:26.423Z,36.82
2023-05-16T09:29:28.180Z,36.06
2023-05-16T09:34:30.064Z,35.00
2023-05-16T09:39:31.786Z,36.17
2023-05-16T09:44:33.765Z,35.22
2023-05-16T09:49:37.426Z,34.72
2023-05-16T09:54:39.742Z,34.41
2023-05-16T09:59:41.715Z,33.99
2023-05-16T10:04:43.470Z,33.84
2023-05-16T10:09:46.938Z,32.62
2023-05-16T10:14:50.426Z,32.63
2023-05-16T10:19:54.222Z,32.15
2023-05-16T10:24:55.868Z,31.13
2023-05-16T10:29:58.742Z,31.23
2023-05-16T10:35:03.235Z,30.05
2023-05-16T10:40:07.014Z,28.75
2023-05-16T10:45:19.834Z,29.67
2023-05-16T10:50:43.017Z,30.27
2023-05-16T10:55:59.767Z,30.19
2023-05-16T11:01:36.307Z,30.07
2023-05-16T11:06:41.114Z,30.33
2023-05-16T11:11:54.860Z,31.26
2023-05-16T11:17:22.094Z,30.91
2023-05-16T11:22:26.826Z,31.93
2023-05-16T11:27:34.451Z,32.48
2023-05-16T11:32:38.029Z,32.60
2023-05-16T11:37:40.040Z,32.66
2023-05-16T11:42:47.786Z,32.60
2023-05-16T11:47:49.890Z,33.38
2023-05-16T11:52:57.389Z,33.61
2023-05-16T11:57:59.559Z,33.92
2023-05-16T12:03:04.590Z,34.75
2023-05-16T12:08:07.191Z,34.90
2023-05-16T12:13:09.347Z,34.73
2023-05-16T12:18:11.875Z,34.43
2023-05-16T12:23:14.656Z,35.39
2023-05-16T12:28:16.439Z,36.90
2023-05-16T12:33:18.138Z,38.08
2023-05-16T12:38:22.008Z,38.96
2023-05-16T12:43:23.744Z,39.38
2023-05-16T12:48:34.121Z,38.84
2023-05-16T12:53:42.014Z,39.80
2023-05-16T12:58:44.101Z,39.95
2023-05-16T13:03:46.009Z,39.60
2023-05-16T13:08:47.776Z,39.29
2023-05-16T13:13:49.794Z,40.88
2023-05-16T13:18:52.349Z,41.37
2023-05-16T13:23:54.469Z,42.50
2023-05-16T13:28:56.337Z,42.78
2023-05-16T13:33:59.035Z,44.25
2023-05-16T13:39:01.014Z,46.26
2023-05-16T13:44:02.737Z,47.90
2023-05-16T13:49:04.525Z,50.47
2023-05-16T13:54:06.427Z,51.67
2023-05-16T13:59:10.216Z,55.70
2023-05-16T14:04:13.377Z,58.42
2023-05-16T14:09:16.994Z,59.20
2023-05-16T14:14:18.739Z,59.98
2023-05-16T14:19:20.862Z,61.31
2023-05-16T14:24:23.048Z,64.22
2023-05-16T14:29:25.814Z,65.94
2023-05-16T14:34:27.638Z,67.17
2023-05-16T14:39:29.463Z,70.01
2023-05-16T14:44:31.465Z,71.02
2023-05-16T14:49:33.298Z,70.43
2023-05-16T14:54:35.254Z,71.01
2023-05-16T14:59:37.022Z,71.68
2023-05-16T15:04:38.809Z,73.54
2023-05-16T15:09:40.583Z,75.38
2023-05-16T15:14:42.374Z,76.07
2023-05-16T15:19:44.200Z,76.26
2023-05-16T15:24:46.297Z,76.38
2023-05-16T15:29:48.123Z,76.83
2023-05-16T15:34:49.901Z,77.19
2023-05-16T15:39:51.713Z,77.40
2023-05-16T15:44:53.465Z,77.73
2023-05-16T15:49:55.136Z,78.54
2023-05-16T15:54:56.879Z,78.85
2023-05-16T15:59:58.953Z,79.23
2023-05-16T16:05:00.825Z,79.82
2023-05-16T16:10:02.735Z,80.31
2023-05-16T16:15:06.756Z,81.29
2023-05-16T16:20:08.923Z,81.38
2023-05-16T16:25:10.797Z,81.73
2023-05-16T16:30:12.780Z,82.17
2023-05-16T16:35:14.994Z,83.05
2023-05-16T16:40:17.099Z,83.85
2023-05-16T16:45:20.308Z,86.28
2023-05-16T16:50:23.197Z,87.08
2023-05-16T16:55:24.940Z,89.18
2023-05-16T17:00:27.415Z,89.17
2023-05-16T17:05:29.361Z,89.55
2023-05-16T17:10:31.801Z,89.89
2023-05-16T17:15:33.787Z,90.87
2023-05-16T17:20:36.453Z,91.61
2023-05-16T17:25:38.241Z,92.76
2023-05-16T17:30:40.125Z,92.64
2023-05-16T17:35:41.920Z,93.98
2023-05-16T17:40:44.942Z,93.95
2023-05-16T17:45:47.270Z,93.12
2023-05-16T17:50:50.093Z,92.98
2023-05-16T17:55:51.845Z,93.32
2023-05-16T18:00:54.727Z,95.32
2023-05-16T18:05:57.062Z,94.89
2023-05-16T18:10:58.855Z,95.00
2023-05-16T18:16:00.641Z,94.80
2023-05-16T18:21:02.951Z,94.85
2023-05-16T18:26:04.779Z,94.91
2023-05-16T18:31:06.913Z,94.79
2023-05-16T18:36:08.668Z,94.81
2023-05-16T18:41:10.520Z,95.11
2023-05-16T18:46:12.254Z,95.17
2023-05-16T18:51:19.341Z,95.97
2023-05-16T18:56:22.579Z,96.44
2023-05-16T19:01:25.449Z,96.78
2023-05-16T19:06:27.335Z,96.85
2023-05-16T19:11:29.090Z,97.71
2023-05-16T19:16:30.847Z,98.36
2023-05-16T19:21:32.605Z,98.52
2023-05-16T19:26:34.345Z,98.50
2023-05-16T19:31:36.253Z,98.59
2023-05-16T19:36:38.217Z,97.98
2023-05-16T19:41:40.569Z,98.69
2023-05-16T19:46:42.497Z,99.28
2023-05-16T19:51:44.223Z,100.00
2023-05-16T19:56:46.010Z,100.00
2023-05-16T20:01:49.392Z,100.00
2023-05-16T20:06:51.877Z,100.00
2023-05-16T20:11:53.841Z,100.00
2023-05-16T20:16:56.381Z,100.00
2023-05-16T20:21:58.102Z,100.00
2023-05-16T20:26:59.909Z,100.00
2023-05-16T20:32:04.072Z,100.00
2023-05-16T20:37:05.973Z,100.00
2023-05-16T20:42:11.254Z,100.00
2023-05-16T20:47:13.165Z,100.00
2023-05-16T20:52:14.937Z,100.00
2023-05-16T20:57:17.811Z,100.00
2023-05-16T21:02:19.620Z,100.00
2023-05-16T21:07:22.960Z,100.00
2023-05-16T21:12:25.695Z,100.00
2023-05-16T21:17:29.240Z,100.00
2023-05-16T21:22:31.010Z,100.00
2023-05-16T21:27:33.107Z,100.00
2023-05-16T21:32:34.958Z,100.00
2023-05-16T21:37:36.810Z,100.00
2023-05-16T21:42:39.131Z,100.00
2023-05-16T21:47:46.505Z,100.00
2023-05-16T21:52:49.841Z,100.00
2023-05-16T21:57:51.529Z,100.00
2023-05-16T22:02:53.723Z,100.00
2023-05-16T22:07:55.940Z,100.00
2023-05-16T22:12:57.675Z,100.00
2023-05-16T22:17:59.528Z,100.00
2023-05-16T22:23:01.496Z,100.00
2023-05-16T22:28:03.377Z,100.00
2023-05-16T22:33:05.175Z,100.00
2023-05-16T22:38:07.022Z,100.00
2023-05-16T22:43:08.958Z,100.00
2023-05-16T22:48:10.754Z,100.00
2023-05-16T22:53:12.646Z,100.00
2023-05-16T22:58:14.378Z,100.00
2023-05-16T23:03:16.115Z,100.00
2023-05-16T23:08:18.181Z,100.00
2023-05-16T23:13:21.686Z,100.00
2023-05-16T23:18:23.532Z,100.00
2023-05-16T23:23:25.492Z,100.00
2023-05-16T23:28:27.257Z,100.00
2023-05-16T23:33:29.052Z,100.00
2023-05-16T23:38:31.568Z,100.00
2023-05-16T23:43:34.092Z,100.00
2023-05-16T23:48:37.543Z,100.00
2023-05-16T23:53:39.415Z,100.00
2023-05-16T23:58:41.147Z,100.00
